sensor_id;sensor_type;location;lat;lon;timestamp;P1;durP1;ratioP1;P2;durP2;ratioP2
15812;SDS011;8007;51.404;6.304;2023-10-09T00:01:56;12.57;;;8.33;;
15812;SDS011;8007;51.404;6.304;2023-10-09T00:04:00;17.07;;;8.97;;
15812;SDS011;8007;51.404;6.304;2023-10-09T00:06:04;14.97;;;8.47;;
15812;SDS011;8007;51.404;6.304;2023-10-09T00:08:07;12.07;;;8.27;;
15812;SDS011;8007;51.404;6.304;2023-10-09T00:10:12;15.33;;;8.57;;
15812;SDS011;8007;51.404;6.304;2023-10-09T00:12:19;14.70;;;8.97;;
15812;SDS011;8007;51.404;6.304;2023-10-09T00:14:25;12.53;;;8.20;;
15812;SDS011;8007;51.404;6.304;2023-10-09T00:16:30;18.80;;;9.10;;
15812;SDS011;8007;51.404;6.304;2023-10-09T00:18:40;15.53;;;9.23;;
15812;SDS011;8007;51.404;6.304;2023-10-09T00:20:46;12.73;;;8.17;;
15812;SDS011;8007;51.404;6.304;2023-10-09T00:22:54;17.83;;;8.87;;
15812;SDS011;8007;51.404;6.304;2023-10-09T00:24:57;18.27;;;8.67;;
15812;SDS011;8007;51.404;6.304;2023-10-09T00:27:13;18.73;;;9.53;;
15812;SDS011;8007;51.404;6.304;2023-10-09T00:29:15;13.93;;;9.27;;
15812;SDS011;8007;51.404;6.304;2023-10-09T00:31:23;15.70;;;8.80;;
15812;SDS011;8007;51.404;6.304;2023-10-09T00:33:32;15.37;;;8.97;;
15812;SDS011;8007;51.404;6.304;2023-10-09T00:35:36;16.73;;;8.87;;
15812;SDS011;8007;51.404;6.304;2023-10-09T00:37:46;13.53;;;8.47;;
15812;SDS011;8007;51.404;6.304;2023-10-09T00:39:51;17.63;;;9.27;;
15812;SDS011;8007;51.404;6.304;2023-10-09T00:41:57;17.17;;;8.93;;
15812;SDS011;8007;51.404;6.304;2023-10-09T00:44:01;12.83;;;8.50;;
15812;SDS011;8007;51.404;6.304;2023-10-09T00:46:08;12.97;;;8.53;;
15812;SDS011;8007;51.404;6.304;2023-10-09T00:48:25;15.97;;;8.67;;
15812;SDS011;8007;51.404;6.304;2023-10-09T00:50:33;15.30;;;8.80;;
15812;SDS011;8007;51.404;6.304;2023-10-09T00:52:36;14.53;;;8.43;;
15812;SDS011;8007;51.404;6.304;2023-10-09T00:54:43;14.87;;;8.83;;
15812;SDS011;8007;51.404;6.304;2023-10-09T00:56:51;13.47;;;7.93;;
15812;SDS011;8007;51.404;6.304;2023-10-09T00:58:59;12.53;;;8.33;;
15812;SDS011;8007;51.404;6.304;2023-10-09T01:01:08;16.30;;;8.90;;
15812;SDS011;8007;51.404;6.304;2023-10-09T01:03:16;13.23;;;8.07;;
15812;SDS011;8007;51.404;6.304;2023-10-09T01:05:22;14.23;;;8.70;;
15812;SDS011;8007;51.404;6.304;2023-10-09T01:07:27;13.23;;;8.63;;
15812;SDS011;8007;51.404;6.304;2023-10-09T01:09:32;14.77;;;8.73;;
15812;SDS011;8007;51.404;6.304;2023-10-09T01:11:37;14.13;;;8.27;;
15812;SDS011;8007;51.404;6.304;2023-10-09T01:13:49;14.77;;;7.87;;
15812;SDS011;8007;51.404;6.304;2023-10-09T01:15:59;14.73;;;7.87;;
15812;SDS011;8007;51.404;6.304;2023-10-09T01:18:05;12.20;;;8.03;;
15812;SDS011;8007;51.404;6.304;2023-10-09T01:20:08;16.77;;;8.17;;
15812;SDS011;8007;51.404;6.304;2023-10-09T01:22:18;10.03;;;7.47;;
15812;SDS011;8007;51.404;6.304;2023-10-09T01:24:23;14.23;;;8.27;;
15812;SDS011;8007;51.404;6.304;2023-10-09T01:26:27;16.83;;;8.37;;
15812;SDS011;8007;51.404;6.304;2023-10-09T01:28:32;14.10;;;7.67;;
15812;SDS011;8007;51.404;6.304;2023-10-09T01:30:35;12.70;;;7.80;;
15812;SDS011;8007;51.404;6.304;2023-10-09T01:32:41;15.53;;;8.50;;
15812;SDS011;8007;51.404;6.304;2023-10-09T01:34:45;13.90;;;8.70;;
15812;SDS011;8007;51.404;6.304;2023-10-09T01:36:52;13.73;;;8.20;;
15812;SDS011;8007;51.404;6.304;2023-10-09T01:38:55;13.73;;;7.97;;
15812;SDS011;8007;51.404;6.304;2023-10-09T01:40:59;12.60;;;7.60;;
15812;SDS011;8007;51.404;6.304;2023-10-09T01:43:07;13.17;;;7.50;;
15812;SDS011;8007;51.404;6.304;2023-10-09T01:45:11;10.77;;;7.60;;
15812;SDS011;8007;51.404;6.304;2023-10-09T01:47:15;12.73;;;8.27;;
15812;SDS011;8007;51.404;6.304;2023-10-09T01:49:18;12.60;;;7.73;;
15812;SDS011;8007;51.404;6.304;2023-10-09T01:51:29;13.07;;;7.37;;
15812;SDS011;8007;51.404;6.304;2023-10-09T01:53:36;13.43;;;7.17;;
15812;SDS011;8007;51.404;6.304;2023-10-09T01:55:38;12.57;;;7.33;;
15812;SDS011;8007;51.404;6.304;2023-10-09T01:57:47;12.23;;;8.07;;
15812;SDS011;8007;51.404;6.304;2023-10-09T01:59:49;13.70;;;7.60;;
15812;SDS011;8007;51.404;6.304;2023-10-09T02:01:53;14.43;;;7.83;;
15812;SDS011;8007;51.404;6.304;2023-10-09T02:03:58;13.80;;;7.83;;
15812;SDS011;8007;51.404;6.304;2023-10-09T02:06:09;13.83;;;7.63;;
15812;SDS011;8007;51.404;6.304;2023-10-09T02:08:28;13.00;;;8.13;;
15812;SDS011;8007;51.404;6.304;2023-10-09T02:10:35;14.67;;;8.03;;
15812;SDS011;8007;51.404;6.304;2023-10-09T02:12:38;13.70;;;7.57;;
15812;SDS011;8007;51.404;6.304;2023-10-09T02:14:42;13.63;;;7.80;;
15812;SDS011;8007;51.404;6.304;2023-10-09T02:16:45;14.60;;;8.03;;
15812;SDS011;8007;51.404;6.304;2023-10-09T02:19:02;13.43;;;7.33;;
15812;SDS011;8007;51.404;6.304;2023-10-09T02:21:08;12.60;;;7.57;;
15812;SDS011;8007;51.404;6.304;2023-10-09T02:23:13;13.07;;;7.70;;
15812;SDS011;8007;51.404;6.304;2023-10-09T02:25:17;13.10;;;7.33;;
15812;SDS011;8007;51.404;6.304;2023-10-09T02:27:22;12.80;;;7.90;;
15812;SDS011;8007;51.404;6.304;2023-10-09T02:29:42;13.13;;;7.27;;
15812;SDS011;8007;51.404;6.304;2023-10-09T02:31:44;14.90;;;8.40;;
15812;SDS011;8007;51.404;6.304;2023-10-09T02:33:51;10.97;;;7.83;;
15812;SDS011;8007;51.404;6.304;2023-10-09T02:35:55;13.50;;;7.80;;
15812;SDS011;8007;51.404;6.304;2023-10-09T02:37:59;13.60;;;7.50;;
15812;SDS011;8007;51.404;6.304;2023-10-09T02:40:04;14.93;;;7.67;;
15812;SDS011;8007;51.404;6.304;2023-10-09T02:42:09;11.83;;;7.40;;
15812;SDS011;8007;51.404;6.304;2023-10-09T02:44:23;13.97;;;9.07;;
15812;SDS011;8007;51.404;6.304;2023-10-09T02:46:27;15.03;;;8.43;;
15812;SDS011;8007;51.404;6.304;2023-10-09T02:48:34;11.57;;;8.07;;
15812;SDS011;8007;51.404;6.304;2023-10-09T02:50:37;12.57;;;8.33;;
15812;SDS011;8007;51.404;6.304;2023-10-09T02:52:39;10.70;;;7.83;;
15812;SDS011;8007;51.404;6.304;2023-10-09T02:54:42;13.33;;;7.93;;
15812;SDS011;8007;51.404;6.304;2023-10-09T02:56:47;15.70;;;7.70;;
15812;SDS011;8007;51.404;6.304;2023-10-09T02:58:56;13.07;;;8.20;;
15812;SDS011;8007;51.404;6.304;2023-10-09T03:01:09;14.23;;;8.10;;
15812;SDS011;8007;51.404;6.304;2023-10-09T03:03:14;12.80;;;8.37;;
15812;SDS011;8007;51.404;6.304;2023-10-09T03:05:18;14.30;;;8.50;;
15812;SDS011;8007;51.404;6.304;2023-10-09T03:07:21;14.33;;;8.40;;
15812;SDS011;8007;51.404;6.304;2023-10-09T03:09:23;13.00;;;8.60;;
15812;SDS011;8007;51.404;6.304;2023-10-09T03:11:31;14.00;;;8.23;;
15812;SDS011;8007;51.404;6.304;2023-10-09T03:13:35;11.17;;;7.77;;
15812;SDS011;8007;51.404;6.304;2023-10-09T03:15:38;15.80;;;8.40;;
15812;SDS011;8007;51.404;6.304;2023-10-09T03:17:41;15.00;;;8.67;;
15812;SDS011;8007;51.404;6.304;2023-10-09T03:19:45;13.53;;;8.70;;
15812;SDS011;8007;51.404;6.304;2023-10-09T03:21:48;12.87;;;8.47;;
15812;SDS011;8007;51.404;6.304;2023-10-09T03:23:51;14.13;;;8.37;;
15812;SDS011;8007;51.404;6.304;2023-10-09T03:25:55;13.00;;;8.40;;
15812;SDS011;8007;51.404;6.304;2023-10-09T03:27:59;10.93;;;8.00;;
15812;SDS011;8007;51.404;6.304;2023-10-09T03:30:01;14.30;;;8.47;;
15812;SDS011;8007;51.404;6.304;2023-10-09T03:32:05;15.40;;;8.50;;
15812;SDS011;8007;51.404;6.304;2023-10-09T03:34:09;12.13;;;7.83;;
15812;SDS011;8007;51.404;6.304;2023-10-09T03:36:13;12.97;;;7.73;;
15812;SDS011;8007;51.404;6.304;2023-10-09T03:38:16;15.20;;;8.40;;
15812;SDS011;8007;51.404;6.304;2023-10-09T03:40:19;15.23;;;8.00;;
15812;SDS011;8007;51.404;6.304;2023-10-09T03:42:22;14.50;;;8.73;;
15812;SDS011;8007;51.404;6.304;2023-10-09T03:44:24;11.87;;;8.37;;
15812;SDS011;8007;51.404;6.304;2023-10-09T03:46:28;14.47;;;9.20;;
15812;SDS011;8007;51.404;6.304;2023-10-09T03:48:33;15.70;;;8.60;;
15812;SDS011;8007;51.404;6.304;2023-10-09T03:50:37;12.90;;;8.27;;
15812;SDS011;8007;51.404;6.304;2023-10-09T03:52:44;15.87;;;8.87;;
15812;SDS011;8007;51.404;6.304;2023-10-09T03:54:46;14.60;;;8.00;;
15812;SDS011;8007;51.404;6.304;2023-10-09T03:56:49;12.80;;;8.33;;
15812;SDS011;8007;51.404;6.304;2023-10-09T03:58:54;15.73;;;8.57;;
15812;SDS011;8007;51.404;6.304;2023-10-09T04:00:57;11.73;;;8.13;;
15812;SDS011;8007;51.404;6.304;2023-10-09T04:02:58;13.40;;;8.57;;
15812;SDS011;8007;51.404;6.304;2023-10-09T04:05:01;14.67;;;9.13;;
15812;SDS011;8007;51.404;6.304;2023-10-09T04:07:05;14.57;;;8.30;;
15812;SDS011;8007;51.404;6.304;2023-10-09T04:09:09;11.93;;;7.80;;
15812;SDS011;8007;51.404;6.304;2023-10-09T04:11:27;15.17;;;8.23;;
15812;SDS011;8007;51.404;6.304;2023-10-09T04:13:31;13.20;;;7.90;;
15812;SDS011;8007;51.404;6.304;2023-10-09T04:15:36;14.70;;;8.13;;
15812;SDS011;8007;51.404;6.304;2023-10-09T04:17:37;12.20;;;8.07;;
15812;SDS011;8007;51.404;6.304;2023-10-09T04:19:43;12.23;;;8.43;;
15812;SDS011;8007;51.404;6.304;2023-10-09T04:22:09;12.87;;;8.17;;
15812;SDS011;8007;51.404;6.304;2023-10-09T04:24:27;15.73;;;8.43;;
15812;SDS011;8007;51.404;6.304;2023-10-09T04:26:41;13.57;;;7.83;;
15812;SDS011;8007;51.404;6.304;2023-10-09T04:28:44;14.30;;;8.30;;
15812;SDS011;8007;51.404;6.304;2023-10-09T04:30:51;15.40;;;8.70;;
15812;SDS011;8007;51.404;6.304;2023-10-09T04:32:55;15.37;;;8.20;;
15812;SDS011;8007;51.404;6.304;2023-10-09T04:35:00;13.60;;;8.20;;
15812;SDS011;8007;51.404;6.304;2023-10-09T04:37:16;11.60;;;8.27;;
15812;SDS011;8007;51.404;6.304;2023-10-09T04:39:39;11.43;;;7.17;;
15812;SDS011;8007;51.404;6.304;2023-10-09T04:41:47;12.00;;;7.93;;
15812;SDS011;8007;51.404;6.304;2023-10-09T04:43:52;12.47;;;7.87;;
15812;SDS011;8007;51.404;6.304;2023-10-09T04:46:04;14.17;;;7.70;;
15812;SDS011;8007;51.404;6.304;2023-10-09T04:48:13;14.00;;;8.07;;
15812;SDS011;8007;51.404;6.304;2023-10-09T04:50:32;12.93;;;7.40;;
15812;SDS011;8007;51.404;6.304;2023-10-09T04:52:45;13.97;;;8.07;;
15812;SDS011;8007;51.404;6.304;2023-10-09T04:54:55;12.87;;;8.00;;
15812;SDS011;8007;51.404;6.304;2023-10-09T04:57:15;11.77;;;7.77;;
15812;SDS011;8007;51.404;6.304;2023-10-09T04:59:18;13.87;;;8.83;;
15812;SDS011;8007;51.404;6.304;2023-10-09T05:01:24;12.77;;;8.03;;
15812;SDS011;8007;51.404;6.304;2023-10-09T05:03:36;18.83;;;7.87;;
15812;SDS011;8007;51.404;6.304;2023-10-09T05:05:44;14.73;;;8.53;;
15812;SDS011;8007;51.404;6.304;2023-10-09T05:07:49;12.93;;;8.30;;
15812;SDS011;8007;51.404;6.304;2023-10-09T05:09:56;15.60;;;8.30;;
15812;SDS011;8007;51.404;6.304;2023-10-09T05:12:10;14.17;;;9.03;;
15812;SDS011;8007;51.404;6.304;2023-10-09T05:14:15;17.33;;;9.53;;
15812;SDS011;8007;51.404;6.304;2023-10-09T05:16:18;15.60;;;8.47;;
15812;SDS011;8007;51.404;6.304;2023-10-09T05:18:25;12.83;;;8.53;;
15812;SDS011;8007;51.404;6.304;2023-10-09T05:20:36;13.53;;;8.90;;
15812;SDS011;8007;51.404;6.304;2023-10-09T05:22:58;15.80;;;8.83;;
15812;SDS011;8007;51.404;6.304;2023-10-09T05:25:22;16.20;;;8.77;;
15812;SDS011;8007;51.404;6.304;2023-10-09T05:27:38;16.10;;;9.47;;
15812;SDS011;8007;51.404;6.304;2023-10-09T05:29:50;15.43;;;9.87;;
15812;SDS011;8007;51.404;6.304;2023-10-09T05:32:12;15.37;;;9.23;;
15812;SDS011;8007;51.404;6.304;2023-10-09T05:34:27;15.30;;;9.53;;
15812;SDS011;8007;51.404;6.304;2023-10-09T05:36:33;19.63;;;9.67;;
15812;SDS011;8007;51.404;6.304;2023-10-09T05:38:36;18.20;;;9.10;;
15812;SDS011;8007;51.404;6.304;2023-10-09T05:40:47;16.57;;;9.30;;
15812;SDS011;8007;51.404;6.304;2023-10-09T05:42:53;13.47;;;8.63;;
15812;SDS011;8007;51.404;6.304;2023-10-09T05:44:59;14.70;;;9.87;;
15812;SDS011;8007;51.404;6.304;2023-10-09T05:47:16;18.47;;;8.97;;
15812;SDS011;8007;51.404;6.304;2023-10-09T05:49:35;12.97;;;8.77;;
15812;SDS011;8007;51.404;6.304;2023-10-09T05:51:46;15.70;;;8.97;;
15812;SDS011;8007;51.404;6.304;2023-10-09T05:53:53;14.47;;;9.37;;
15812;SDS011;8007;51.404;6.304;2023-10-09T05:56:26;17.53;;;9.30;;
15812;SDS011;8007;51.404;6.304;2023-10-09T05:58:46;17.97;;;10.33;;
15812;SDS011;8007;51.404;6.304;2023-10-09T06:01:05;16.63;;;9.30;;
15812;SDS011;8007;51.404;6.304;2023-10-09T06:03:25;17.90;;;9.70;;
15812;SDS011;8007;51.404;6.304;2023-10-09T06:05:48;16.30;;;9.37;;
15812;SDS011;8007;51.404;6.304;2023-10-09T06:08:02;15.57;;;9.67;;
15812;SDS011;8007;51.404;6.304;2023-10-09T06:10:07;17.20;;;10.13;;
15812;SDS011;8007;51.404;6.304;2023-10-09T06:12:32;18.40;;;10.43;;
15812;SDS011;8007;51.404;6.304;2023-10-09T06:14:34;17.70;;;10.53;;
15812;SDS011;8007;51.404;6.304;2023-10-09T06:16:49;13.70;;;10.00;;
15812;SDS011;8007;51.404;6.304;2023-10-09T06:19:00;16.03;;;10.17;;
15812;SDS011;8007;51.404;6.304;2023-10-09T06:21:25;15.83;;;9.63;;
15812;SDS011;8007;51.404;6.304;2023-10-09T06:23:40;15.70;;;10.40;;
15812;SDS011;8007;51.404;6.304;2023-10-09T06:26:02;16.20;;;10.10;;
15812;SDS011;8007;51.404;6.304;2023-10-09T06:28:25;19.57;;;9.37;;
15812;SDS011;8007;51.404;6.304;2023-10-09T06:30:34;14.30;;;10.63;;
15812;SDS011;8007;51.404;6.304;2023-10-09T06:32:44;13.90;;;9.27;;
15812;SDS011;8007;51.404;6.304;2023-10-09T06:34:58;17.87;;;9.80;;
15812;SDS011;8007;51.404;6.304;2023-10-09T06:37:14;13.47;;;9.57;;
15812;SDS011;8007;51.404;6.304;2023-10-09T06:39:34;17.10;;;9.83;;
15812;SDS011;8007;51.404;6.304;2023-10-09T06:42:11;18.20;;;10.53;;
15812;SDS011;8007;51.404;6.304;2023-10-09T06:44:32;17.10;;;10.73;;
15812;SDS011;8007;51.404;6.304;2023-10-09T06:46:48;19.10;;;10.53;;
15812;SDS011;8007;51.404;6.304;2023-10-09T06:48:52;18.50;;;10.83;;
15812;SDS011;8007;51.404;6.304;2023-10-09T06:50:56;20.23;;;10.87;;
15812;SDS011;8007;51.404;6.304;2023-10-09T06:53:04;15.17;;;10.47;;
15812;SDS011;8007;51.404;6.304;2023-10-09T06:55:20;16.83;;;10.40;;
15812;SDS011;8007;51.404;6.304;2023-10-09T06:57:32;13.97;;;10.07;;
15812;SDS011;8007;51.404;6.304;2023-10-09T06:59:51;16.40;;;10.40;;
15812;SDS011;8007;51.404;6.304;2023-10-09T07:02:11;23.37;;;10.40;;
15812;SDS011;8007;51.404;6.304;2023-10-09T07:04:26;18.53;;;10.10;;
15812;SDS011;8007;51.404;6.304;2023-10-09T07:06:42;16.73;;;9.83;;
15812;SDS011;8007;51.404;6.304;2023-10-09T07:08:59;18.03;;;10.70;;
15812;SDS011;8007;51.404;6.304;2023-10-09T07:11:15;17.10;;;10.20;;
15812;SDS011;8007;51.404;6.304;2023-10-09T07:13:49;16.10;;;10.57;;
15812;SDS011;8007;51.404;6.304;2023-10-09T07:15:57;18.87;;;10.13;;
15812;SDS011;8007;51.404;6.304;2023-10-09T07:18:25;15.63;;;10.30;;
15812;SDS011;8007;51.404;6.304;2023-10-09T07:20:48;16.67;;;10.73;;
15812;SDS011;8007;51.404;6.304;2023-10-09T07:23:11;16.93;;;10.60;;
15812;SDS011;8007;51.404;6.304;2023-10-09T07:25:15;17.07;;;10.30;;
15812;SDS011;8007;51.404;6.304;2023-10-09T07:27:28;24.27;;;11.20;;
15812;SDS011;8007;51.404;6.304;2023-10-09T07:29:44;17.60;;;10.93;;
15812;SDS011;8007;51.404;6.304;2023-10-09T07:31:53;16.60;;;10.00;;
15812;SDS011;8007;51.404;6.304;2023-10-09T07:34:12;14.80;;;9.77;;
15812;SDS011;8007;51.404;6.304;2023-10-09T07:36:28;17.90;;;10.33;;
15812;SDS011;8007;51.404;6.304;2023-10-09T07:38:34;18.73;;;10.93;;
15812;SDS011;8007;51.404;6.304;2023-10-09T07:40:35;20.17;;;10.17;;
15812;SDS011;8007;51.404;6.304;2023-10-09T07:42:55;18.40;;;10.40;;
15812;SDS011;8007;51.404;6.304;2023-10-09T07:45:05;14.90;;;10.60;;
15812;SDS011;8007;51.404;6.304;2023-10-09T07:47:34;20.63;;;10.53;;
15812;SDS011;8007;51.404;6.304;2023-10-09T07:50:00;21.23;;;10.97;;
15812;SDS011;8007;51.404;6.304;2023-10-09T07:52:04;18.63;;;10.00;;
15812;SDS011;8007;51.404;6.304;2023-10-09T07:54:06;15.03;;;10.17;;
15812;SDS011;8007;51.404;6.304;2023-10-09T07:56:08;15.53;;;9.77;;
15812;SDS011;8007;51.404;6.304;2023-10-09T07:58:14;19.20;;;10.13;;
15812;SDS011;8007;51.404;6.304;2023-10-09T08:00:25;17.53;;;10.23;;
15812;SDS011;8007;51.404;6.304;2023-10-09T08:03:08;19.83;;;9.87;;
15812;SDS011;8007;51.404;6.304;2023-10-09T08:05:23;16.70;;;10.40;;
15812;SDS011;8007;51.404;6.304;2023-10-09T08:07:33;17.97;;;10.37;;
15812;SDS011;8007;51.404;6.304;2023-10-09T08:09:37;16.77;;;10.10;;
15812;SDS011;8007;51.404;6.304;2023-10-09T08:11:47;24.00;;;11.33;;
15812;SDS011;8007;51.404;6.304;2023-10-09T08:14:07;18.97;;;11.10;;
15812;SDS011;8007;51.404;6.304;2023-10-09T08:16:30;18.43;;;10.70;;
15812;SDS011;8007;51.404;6.304;2023-10-09T08:18:38;19.80;;;11.13;;
15812;SDS011;8007;51.404;6.304;2023-10-09T08:20:44;19.63;;;11.20;;
15812;SDS011;8007;51.404;6.304;2023-10-09T08:23:11;20.47;;;11.10;;
15812;SDS011;8007;51.404;6.304;2023-10-09T08:25:22;20.30;;;11.00;;
15812;SDS011;8007;51.404;6.304;2023-10-09T08:27:28;25.43;;;11.60;;
15812;SDS011;8007;51.404;6.304;2023-10-09T08:29:54;20.63;;;10.47;;
15812;SDS011;8007;51.404;6.304;2023-10-09T08:32:20;18.33;;;10.17;;
15812;SDS011;8007;51.404;6.304;2023-10-09T08:34:40;18.63;;;10.97;;
15812;SDS011;8007;51.404;6.304;2023-10-09T08:36:48;18.13;;;10.70;;
15812;SDS011;8007;51.404;6.304;2023-10-09T08:38:52;16.53;;;10.17;;
15812;SDS011;8007;51.404;6.304;2023-10-09T08:40:58;15.43;;;9.50;;
15812;SDS011;8007;51.404;6.304;2023-10-09T08:43:16;19.53;;;10.37;;
15812;SDS011;8007;51.404;6.304;2023-10-09T08:45:21;17.77;;;10.37;;
15812;SDS011;8007;51.404;6.304;2023-10-09T08:47:27;18.40;;;10.20;;
15812;SDS011;8007;51.404;6.304;2023-10-09T08:49:30;17.77;;;9.93;;
15812;SDS011;8007;51.404;6.304;2023-10-09T08:51:36;15.63;;;10.77;;
15812;SDS011;8007;51.404;6.304;2023-10-09T08:53:38;17.83;;;9.67;;
15812;SDS011;8007;51.404;6.304;2023-10-09T08:55:43;16.73;;;9.60;;
15812;SDS011;8007;51.404;6.304;2023-10-09T08:57:46;15.80;;;9.07;;
15812;SDS011;8007;51.404;6.304;2023-10-09T08:59:48;17.03;;;9.47;;
15812;SDS011;8007;51.404;6.304;2023-10-09T09:01:51;15.13;;;9.20;;
15812;SDS011;8007;51.404;6.304;2023-10-09T09:03:53;16.73;;;9.77;;
15812;SDS011;8007;51.404;6.304;2023-10-09T09:05:57;19.83;;;9.53;;
15812;SDS011;8007;51.404;6.304;2023-10-09T09:08:03;17.03;;;9.50;;
15812;SDS011;8007;51.404;6.304;2023-10-09T09:10:17;22.20;;;9.47;;
15812;SDS011;8007;51.404;6.304;2023-10-09T09:12:37;13.73;;;9.00;;
15812;SDS011;8007;51.404;6.304;2023-10-09T09:14:40;15.20;;;9.10;;
15812;SDS011;8007;51.404;6.304;2023-10-09T09:16:44;17.63;;;9.40;;
15812;SDS011;8007;51.404;6.304;2023-10-09T09:18:50;20.30;;;9.40;;
15812;SDS011;8007;51.404;6.304;2023-10-09T09:20:57;13.07;;;9.07;;
15812;SDS011;8007;51.404;6.304;2023-10-09T09:22:59;18.87;;;9.97;;
15812;SDS011;8007;51.404;6.304;2023-10-09T09:25:06;15.17;;;9.27;;
15812;SDS011;8007;51.404;6.304;2023-10-09T09:27:11;16.00;;;10.03;;
15812;SDS011;8007;51.404;6.304;2023-10-09T09:29:20;17.53;;;9.40;;
15812;SDS011;8007;51.404;6.304;2023-10-09T09:31:24;15.43;;;9.23;;
15812;SDS011;8007;51.404;6.304;2023-10-09T09:33:27;15.63;;;9.77;;
15812;SDS011;8007;51.404;6.304;2023-10-09T09:35:38;14.17;;;9.07;;
15812;SDS011;8007;51.404;6.304;2023-10-09T09:37:43;14.63;;;9.53;;
15812;SDS011;8007;51.404;6.304;2023-10-09T09:39:54;16.37;;;9.63;;
15812;SDS011;8007;51.404;6.304;2023-10-09T09:42:02;15.17;;;8.97;;
15812;SDS011;8007;51.404;6.304;2023-10-09T09:44:07;15.90;;;9.60;;
15812;SDS011;8007;51.404;6.304;2023-10-09T09:46:14;18.23;;;10.70;;
15812;SDS011;8007;51.404;6.304;2023-10-09T09:48:18;24.27;;;11.27;;
15812;SDS011;8007;51.404;6.304;2023-10-09T09:50:20;15.77;;;9.77;;
15812;SDS011;8007;51.404;6.304;2023-10-09T09:52:25;14.50;;;9.57;;
15812;SDS011;8007;51.404;6.304;2023-10-09T09:54:29;15.60;;;9.57;;
15812;SDS011;8007;51.404;6.304;2023-10-09T09:56:36;15.97;;;10.30;;
15812;SDS011;8007;51.404;6.304;2023-10-09T09:58:41;15.70;;;10.50;;
15812;SDS011;8007;51.404;6.304;2023-10-09T10:00:46;16.50;;;10.53;;
15812;SDS011;8007;51.404;6.304;2023-10-09T10:02:54;17.43;;;9.90;;
15812;SDS011;8007;51.404;6.304;2023-10-09T10:04:59;17.27;;;11.03;;
15812;SDS011;8007;51.404;6.304;2023-10-09T10:07:03;18.27;;;10.57;;
15812;SDS011;8007;51.404;6.304;2023-10-09T10:09:09;14.47;;;10.23;;
15812;SDS011;8007;51.404;6.304;2023-10-09T10:13:55;15.03;;;10.43;;
15812;SDS011;8007;51.404;6.304;2023-10-09T10:16:08;22.13;;;10.80;;
15812;SDS011;8007;51.404;6.304;2023-10-09T10:18:20;15.87;;;10.73;;
15812;SDS011;8007;51.404;6.304;2023-10-09T10:20:21;17.63;;;10.10;;
15812;SDS011;8007;51.404;6.304;2023-10-09T10:22:26;16.17;;;10.33;;
15812;SDS011;8007;51.404;6.304;2023-10-09T10:24:42;19.00;;;10.50;;
15812;SDS011;8007;51.404;6.304;2023-10-09T10:29:25;15.90;;;10.30;;
15812;SDS011;8007;51.404;6.304;2023-10-09T10:31:51;20.77;;;11.83;;
15812;SDS011;8007;51.404;6.304;2023-10-09T10:34:05;14.63;;;10.10;;
15812;SDS011;8007;51.404;6.304;2023-10-09T10:36:11;18.87;;;11.57;;
15812;SDS011;8007;51.404;6.304;2023-10-09T10:38:29;18.67;;;11.63;;
15812;SDS011;8007;51.404;6.304;2023-10-09T10:40:36;18.90;;;11.83;;
15812;SDS011;8007;51.404;6.304;2023-10-09T10:42:46;19.13;;;11.07;;
15812;SDS011;8007;51.404;6.304;2023-10-09T10:45:17;15.27;;;10.63;;
15812;SDS011;8007;51.404;6.304;2023-10-09T10:47:34;17.60;;;11.67;;
15812;SDS011;8007;51.404;6.304;2023-10-09T10:49:36;18.37;;;11.20;;
15812;SDS011;8007;51.404;6.304;2023-10-09T10:51:40;15.10;;;10.47;;
15812;SDS011;8007;51.404;6.304;2023-10-09T10:53:51;17.77;;;11.43;;
15812;SDS011;8007;51.404;6.304;2023-10-09T10:55:57;17.17;;;10.73;;
15812;SDS011;8007;51.404;6.304;2023-10-09T10:58:17;15.40;;;10.90;;
15812;SDS011;8007;51.404;6.304;2023-10-09T11:00:36;15.13;;;10.50;;
15812;SDS011;8007;51.404;6.304;2023-10-09T11:02:55;19.53;;;10.90;;
15812;SDS011;8007;51.404;6.304;2023-10-09T11:05:13;16.97;;;11.47;;
15812;SDS011;8007;51.404;6.304;2023-10-09T11:07:14;16.70;;;11.33;;
15812;SDS011;8007;51.404;6.304;2023-10-09T11:09:28;15.63;;;10.37;;
15812;SDS011;8007;51.404;6.304;2023-10-09T11:11:36;18.23;;;11.37;;
15812;SDS011;8007;51.404;6.304;2023-10-09T11:13:47;16.17;;;11.00;;
15812;SDS011;8007;51.404;6.304;2023-10-09T11:15:57;20.37;;;11.47;;
15812;SDS011;8007;51.404;6.304;2023-10-09T11:18:14;17.67;;;11.13;;
15812;SDS011;8007;51.404;6.304;2023-10-09T11:20:19;15.97;;;11.07;;
15812;SDS011;8007;51.404;6.304;2023-10-09T11:22:32;19.70;;;11.40;;
15812;SDS011;8007;51.404;6.304;2023-10-09T11:24:39;16.13;;;10.77;;
15812;SDS011;8007;51.404;6.304;2023-10-09T11:26:43;17.43;;;11.40;;
15812;SDS011;8007;51.404;6.304;2023-10-09T11:29:06;18.03;;;11.17;;
15812;SDS011;8007;51.404;6.304;2023-10-09T11:31:24;20.05;;;11.52;;
15812;SDS011;8007;51.404;6.304;2023-10-09T11:33:26;19.00;;;12.37;;
15812;SDS011;8007;51.404;6.304;2023-10-09T11:35:30;15.20;;;11.40;;
15812;SDS011;8007;51.404;6.304;2023-10-09T11:37:34;18.33;;;11.63;;
15812;SDS011;8007;51.404;6.304;2023-10-09T11:39:39;16.85;;;11.80;;
15812;SDS011;8007;51.404;6.304;2023-10-09T11:41:50;18.60;;;10.93;;
15812;SDS011;8007;51.404;6.304;2023-10-09T11:44:04;17.17;;;11.45;;
15812;SDS011;8007;51.404;6.304;2023-10-09T11:46:08;21.60;;;11.57;;
15812;SDS011;8007;51.404;6.304;2023-10-09T11:48:18;17.55;;;11.73;;
15812;SDS011;8007;51.404;6.304;2023-10-09T11:50:41;23.83;;;12.20;;
15812;SDS011;8007;51.404;6.304;2023-10-09T11:52:54;22.83;;;12.48;;
15812;SDS011;8007;51.404;6.304;2023-10-09T11:55:08;18.60;;;11.70;;
15812;SDS011;8007;51.404;6.304;2023-10-09T11:57:15;16.67;;;11.10;;
15812;SDS011;8007;51.404;6.304;2023-10-09T11:59:17;20.03;;;11.40;;
15812;SDS011;8007;51.404;6.304;2023-10-09T12:01:20;15.55;;;11.73;;
15812;SDS011;8007;51.404;6.304;2023-10-09T12:03:25;20.73;;;12.23;;
15812;SDS011;8007;51.404;6.304;2023-10-09T12:05:30;17.90;;;11.35;;
15812;SDS011;8007;51.404;6.304;2023-10-09T12:07:33;18.15;;;11.73;;
15812;SDS011;8007;51.404;6.304;2023-10-09T12:09:38;18.80;;;12.18;;
15812;SDS011;8007;51.404;6.304;2023-10-09T12:11:40;16.77;;;12.05;;
15812;SDS011;8007;51.404;6.304;2023-10-09T12:13:43;17.67;;;12.50;;
15812;SDS011;8007;51.404;6.304;2023-10-09T12:15:46;18.23;;;11.30;;
15812;SDS011;8007;51.404;6.304;2023-10-09T12:17:48;20.15;;;12.10;;
15812;SDS011;8007;51.404;6.304;2023-10-09T12:19:51;15.32;;;11.07;;
15812;SDS011;8007;51.404;6.304;2023-10-09T12:21:56;19.00;;;11.55;;
15812;SDS011;8007;51.404;6.304;2023-10-09T12:24:00;16.65;;;11.60;;
15812;SDS011;8007;51.404;6.304;2023-10-09T12:26:11;22.10;;;12.23;;
15812;SDS011;8007;51.404;6.304;2023-10-09T12:28:15;17.67;;;11.27;;
15812;SDS011;8007;51.404;6.304;2023-10-09T12:30:20;18.60;;;12.35;;
15812;SDS011;8007;51.404;6.304;2023-10-09T12:32:26;19.23;;;12.30;;
15812;SDS011;8007;51.404;6.304;2023-10-09T12:34:30;23.80;;;12.07;;
15812;SDS011;8007;51.404;6.304;2023-10-09T12:36:34;20.58;;;12.50;;
15812;SDS011;8007;51.404;6.304;2023-10-09T12:38:37;19.35;;;12.20;;
15812;SDS011;8007;51.404;6.304;2023-10-09T12:40:46;20.40;;;11.70;;
15812;SDS011;8007;51.404;6.304;2023-10-09T12:42:52;22.83;;;12.65;;
15812;SDS011;8007;51.404;6.304;2023-10-09T12:44:54;18.63;;;11.77;;
15812;SDS011;8007;51.404;6.304;2023-10-09T12:46:57;18.58;;;12.30;;
15812;SDS011;8007;51.404;6.304;2023-10-09T12:49:04;20.85;;;12.77;;
15812;SDS011;8007;51.404;6.304;2023-10-09T12:51:07;20.38;;;11.93;;
15812;SDS011;8007;51.404;6.304;2023-10-09T12:53:14;19.80;;;12.73;;
15812;SDS011;8007;51.404;6.304;2023-10-09T12:55:18;19.40;;;12.60;;
15812;SDS011;8007;51.404;6.304;2023-10-09T12:57:21;21.20;;;13.23;;
15812;SDS011;8007;51.404;6.304;2023-10-09T12:59:24;19.85;;;13.05;;